CW1490 Weather Reports


Display with metric or nautical units.
time (UTC)temp
F
wind
direction
speed
MPH
gust
MPH
rain 1hr
in
rain 24hr
in
rain mn
in
humidity
%
barometer
mb
20170522231935 52 165 3.0 4.0 0.04 0.32 0.28 95 1015.1
20170522230437 52 314 0.0 0.0 0.04 0.32 0.28 95 1015.5
20170522224935 52 339 0.0 0.0 0.04 0.31 0.28 95 1015.3
20170522223428 52 339 0.0 0.0 0.03 0.28 0.26 95 1015.3
20170522221927 52 339 0.0 2.0 0.05 0.28 0.25 94 1015.5
20170522220427 52 235 0.0 2.0 0.09 0.28 0.25 94 1015.6
20170522214923 52 230 0.0 2.0 0.09 0.27 0.24 94 1015.6
20170522213421 52 230 0.0 2.0 0.08 0.26 0.23 92 1015.8
20170522211926 52 230 1.0 2.0 0.05 0.23 0.20 91 1015.8
20170522210420 53 230 0.0 5.0 0.01 0.19 0.16 88 1015.9
20170522204922 53 232 4.0 10.0 0.00 0.18 0.15 84 1015.9
20170522203418 53 212 2.0 7.0 0.00 0.18 0.15 83 1016.1
20170522201916 53 235 5.0 10.0 0.00 0.18 0.15 82 1016.4
20170522200431 53 222 6.0 11.0 0.00 0.18 0.15 82 1016.3
20170522194916 54 194 6.0 10.0 0.00 0.18 0.15 82 1016.4
20170522193414 54 195 8.0 12.0 0.00 0.18 0.15 83 1016.6
20170522191914 53 192 6.0 11.0 0.00 0.18 0.15 82 1016.7
20170522190413 54 240 5.0 14.0 0.00 0.18 0.15 82 1016.9
20170522184913 54 191 7.0 15.0 0.00 0.18 0.15 82 1016.9
20170522183513 53 179 3.0 8.0 0.00 0.18 0.15 84 1017.2
20170522181907 53 202 6.0 11.0 0.00 0.18 0.15 83 1017.3
20170522180406 53 206 3.0 10.0 0.00 0.18 0.15 84 1017.2
20170522174904 53 223 7.0 9.0 0.00 0.18 0.15 84 1017.6
20170522173401 53 216 5.0 12.0 0.00 0.18 0.15 83 1018.0
20170522171857 53 210 6.0 12.0 0.00 0.18 0.15 84 1018.1
20170522170356 52 209 7.0 12.0 0.00 0.18 0.15 84 1018.1
20170522164905 52 178 7.0 12.0 0.00 0.18 0.15 84 1018.2
20170522163353 52 189 7.0 10.0 0.00 0.18 0.15 84 1018.6
20170522161856 52 186 7.0 11.0 0.00 0.18 0.15 84 1018.8
20170522160355 52 179 8.0 16.0 0.00 0.18 0.15 83 1018.7
20170522154856 52 214 10.0 17.0 0.00 0.18 0.15 82 1019.0
20170522153348 52 209 8.0 13.0 0.00 0.18 0.15 84 1019.0
20170522151846 52 215 5.0 11.0 0.00 0.18 0.15 86 1018.9
20170522150346 52 203 5.0 10.0 0.00 0.18 0.15 86 1019.4
20170522144843 52 193 3.0 11.0 0.00 0.18 0.15 88 1019.7
20170522143344 52 177 5.0 10.0 0.00 0.18 0.15 88 1019.6
20170522141841 52 162 4.0 9.0 0.00 0.18 0.15 89 1019.8
20170522140335 51 187 4.0 9.0 0.00 0.18 0.15 89 1020.1
20170522134837 51 164 7.0 10.0 0.00 0.18 0.15 89 1020.2
20170522133354 51 185 5.0 10.0 0.00 0.18 0.15 89 1020.2
20170522131833 51 168 4.0 9.0 0.00 0.18 0.15 90 1020.3
20170522130328 50 214 5.0 8.0 0.00 0.18 0.15 91 1020.5
20170522124830 50 188 3.0 6.0 0.00 0.18 0.15 91 1020.5
20170522123326 50 195 1.0 5.0 0.00 0.18 0.15 92 1020.7
20170522121825 49 228 3.0 6.0 0.00 0.18 0.15 92 1020.7
20170522120325 49 196 2.0 4.0 0.01 0.18 0.15 92 1020.7
20170522114826 49 214 2.0 3.0 0.01 0.18 0.15 93 1020.6
20170522113329 49 217 1.0 2.0 0.03 0.18 0.15 94 1020.6
20170522111924 49 217 0.0 2.0 0.04 0.18 0.15 93 1020.7
20170522110321 49 217 0.0 3.0 0.03 0.17 0.14 93 1021.1
20170522104822 49 214 1.0 3.0 0.03 0.17 0.14 94 1021.2
20170522103317 49 196 0.0 2.0 0.02 0.15 0.12 94 1021.0
20170522101811 49 197 0.0 2.0 0.02 0.14 0.11 94 1021.1
20170522100314 49 197 0.0 2.0 0.02 0.14 0.11 94 1021.1
20170522094809 49 189 1.0 3.0 0.02 0.14 0.11 94 1021.2
20170522093310 49 166 1.0 4.0 0.01 0.13 0.10 94 1021.3
20170522091807 49 195 1.0 3.0 0.00 0.12 0.09 94 1021.3
20170522090306 49 197 1.0 3.0 0.00 0.12 0.09 93 1021.4
20170522084805 50 221 2.0 4.0 0.01 0.12 0.09 92 1021.4
20170522083303 50 206 2.0 4.0 0.01 0.12 0.09 92 1021.1
20170522081801 50 222 3.0 4.0 0.01 0.12 0.09 93 1021.1
20170522080300 50 195 1.0 3.0 0.02 0.12 0.09 93 1021.2
20170522074758 50 212 0.0 3.0 0.03 0.11 0.08 94 1021.5
20170522073256 50 218 1.0 3.0 0.06 0.11 0.08 94 1021.8
20170522071756 51 234 0.0 2.0 0.07 0.11 0.08 94 1021.9
20170522070300 51 234 1.0 2.0 0.06 0.10 0.07 94 1021.9
20170522064758 51 234 1.0 2.0 0.04 0.08 0.05 94 1021.6
20170522063251 52 234 0.0 1.0 0.01 0.05 0.02 93 1021.8
20170522061751 52 234 0.0 2.0 0.00 0.04 0.01 92 1021.7
20170522060250 52 234 0.0 2.0 0.00 0.04 0.01 92 1021.5
20170522054749 52 234 0.0 2.0 0.00 0.04 0.01 91 1021.3
20170522053248 52 197 1.0 3.0 0.00 0.04 0.01 92 1021.3
20170522051745 52 222 1.0 2.0 0.01 0.04 0.01 92 1021.6
20170522050444 52 222 0.0 2.0 0.01 0.04 0.01 92 1021.9
20170522044741 52 222 2.0 3.0 0.02 0.04 0.01 90 1022.2
20170522043240 52 217 1.0 3.0 0.04 0.04 0.01 89 1022.6
20170522041738 52 217 1.0 3.0 0.03 0.03 0.00 88 1022.4
20170522040238 53 217 1.0 3.0 0.03 0.03 0.00 84 1022.4
20170522034735 57 224 2.0 11.0 0.02 0.02 0.02 68 1022.3
20170522033232 60 249 6.0 15.0 0.00 0.00 0.00 54 1022.7
20170522031732 61 202 6.0 11.0 0.00 0.00 0.00 50 1022.6
20170522030239 61 187 5.0 11.0 0.00 0.00 0.00 50 1022.3
20170522024730 61 174 7.0 12.0 0.00 0.00 0.00 51 1022.4
20170522023337 61 132 4.0 9.0 0.00 0.00 0.00 54 1022.4
20170522021736 62 181 3.0 7.0 0.00 0.00 0.00 58 1022.5
20170522020240 61 174 3.0 8.0 0.00 0.00 0.00 61 1022.5
20170522014731 59 195 1.0 4.0 0.00 0.00 0.00 72 1022.3
20170522013227 59 212 0.0 2.0 0.00 0.00 0.00 74 1022.3
20170522011727 59 212 1.0 2.0 0.00 0.00 0.00 73 1022.4
20170522010228 59 207 0.0 2.0 0.00 0.00 0.00 72 1022.1
20170522004730 61 207 0.0 2.0 0.00 0.00 0.00 70 1022.1
20170522003224 61 207 0.0 1.0 0.00 0.00 0.00 66 1022.3
20170522001732 62 207 0.0 1.0 0.00 0.00 0.00 65 1022.4
20170522000226 63 207 0.0 2.0 0.00 0.00 0.00 60 1022.4
20170521234730 64 207 0.0 1.0 0.00 0.00 0.00 56 1022.5
20170521233220 65 207 1.0 2.0 0.00 0.00 0.00 46 1022.5